createdAt,value
2022-11-14T00:01:55.481Z,4.81
2022-11-14T00:07:18.988Z,4.62
2022-11-14T00:12:40.777Z,4.60
2022-11-14T00:18:02.848Z,4.65
2022-11-14T00:23:26.126Z,4.65
2022-11-14T00:28:48.433Z,4.70
2022-11-14T00:34:10.663Z,4.87
2022-11-14T00:39:34.068Z,4.94
2022-11-14T00:44:55.743Z,5.13
2022-11-14T00:50:18.249Z,5.26
2022-11-14T00:55:41.638Z,5.32
2022-11-14T01:01:03.765Z,5.53
2022-11-14T01:06:25.876Z,5.64
2022-11-14T01:11:49.096Z,5.75
2022-11-14T01:17:10.725Z,5.86
2022-11-14T01:22:32.510Z,5.97
2022-11-14T01:27:56.066Z,6.05
2022-11-14T01:33:18.402Z,6.20
2022-11-14T01:38:40.303Z,6.36
2022-11-14T01:44:03.746Z,6.45
2022-11-14T01:49:28.280Z,6.43
2022-11-14T01:54:53.090Z,6.42
2022-11-14T02:00:18.087Z,6.54
2022-11-14T02:05:40.244Z,6.62
2022-11-14T02:11:02.293Z,6.69
2022-11-14T02:16:25.505Z,6.74
2022-11-14T02:21:49.269Z,6.77
2022-11-14T02:27:12.515Z,6.70
2022-11-14T02:32:57.014Z,6.57
2022-11-14T02:38:18.082Z,6.68
2022-11-14T02:43:39.682Z,6.65
2022-11-14T02:49:01.658Z,6.46
2022-11-14T02:54:24.774Z,6.35
2022-11-14T02:59:46.534Z,6.34
2022-11-14T03:05:09.028Z,6.33
2022-11-14T03:10:32.174Z,6.30
2022-11-14T03:15:53.806Z,6.39
2022-11-14T03:21:17.414Z,6.43
2022-11-14T03:26:40.533Z,6.44
2022-11-14T03:32:02.225Z,6.44
2022-11-14T03:37:23.889Z,6.57
2022-11-14T03:42:46.943Z,6.69
2022-11-14T03:48:08.840Z,6.72
2022-11-14T03:53:30.758Z,6.69
2022-11-14T03:58:54.445Z,6.70
2022-11-14T04:04:16.545Z,6.68
2022-11-14T04:09:38.630Z,6.72
2022-11-14T04:15:02.157Z,6.72
2022-11-14T04:20:24.254Z,6.69
2022-11-14T04:25:47.530Z,6.71
2022-11-14T04:31:10.878Z,6.74
2022-11-14T04:36:32.824Z,6.73
2022-11-14T04:41:54.789Z,6.77
2022-11-14T04:47:18.085Z,6.79
2022-11-14T04:52:39.643Z,6.73
2022-11-14T04:58:02.704Z,6.68
2022-11-14T05:03:26.152Z,6.63
2022-11-14T05:08:48.593Z,6.56
2022-11-14T05:14:10.839Z,6.65
2022-11-14T05:19:34.280Z,6.65
2022-11-14T05:24:56.206Z,6.71
2022-11-14T05:30:18.876Z,6.68
2022-11-14T05:35:42.262Z,6.67
2022-11-14T05:41:07.246Z,6.67
2022-11-14T05:46:29.100Z,6.71
2022-11-14T05:51:52.740Z,6.78
2022-11-14T05:57:14.333Z,6.81
2022-11-14T06:02:36.681Z,6.92
2022-11-14T06:08:00.340Z,6.92
2022-11-14T06:13:24.262Z,7.08
2022-11-14T06:18:46.493Z,7.19
2022-11-14T06:24:10.238Z,7.32
2022-11-14T06:29:35.483Z,7.36
2022-11-14T06:34:57.889Z,7.51
2022-11-14T06:40:21.126Z,7.57
2022-11-14T06:45:42.959Z,7.36
2022-11-14T06:51:06.175Z,7.40
2022-11-14T06:56:29.199Z,7.51
2022-11-14T07:01:51.061Z,7.57
2022-11-14T07:07:13.052Z,7.66
2022-11-14T07:12:36.772Z,7.74
2022-11-14T07:17:59.930Z,7.84
2022-11-14T07:23:23.109Z,8.00
2022-11-14T07:28:51.948Z,8.13
2022-11-14T07:34:14.924Z,8.25
2022-11-14T07:39:36.474Z,8.39
2022-11-14T07:44:59.615Z,8.33
2022-11-14T07:50:21.635Z,8.25
2022-11-14T07:55:43.266Z,8.37
2022-11-14T08:01:09.101Z,8.25
2022-11-14T08:06:31.414Z,8.44
2022-11-14T08:11:53.145Z,8.35
2022-11-14T08:17:16.767Z,8.37
2022-11-14T08:22:39.079Z,8.35
2022-11-14T08:28:01.268Z,8.53
2022-11-14T08:33:24.696Z,8.74
2022-11-14T08:38:46.607Z,8.61
2022-11-14T08:44:08.405Z,8.71
2022-11-14T08:49:32.144Z,8.74
2022-11-14T08:54:54.241Z,8.71
2022-11-14T09:00:17.216Z,8.76
2022-11-14T09:05:41.084Z,8.78
2022-11-14T09:11:05.875Z,8.60
2022-11-14T09:16:28.222Z,8.90
2022-11-14T09:21:52.011Z,8.90
2022-11-14T09:27:13.923Z,8.87
2022-11-14T09:32:35.788Z,8.96
2022-11-14T09:38:02.975Z,8.98
2022-11-14T09:43:43.598Z,9.16
2022-11-14T09:49:10.389Z,9.07
2022-11-14T09:54:45.673Z,8.99
2022-11-14T10:00:15.711Z,8.95
2022-11-14T10:05:57.552Z,8.93
2022-11-14T10:11:26.828Z,8.87
2022-11-14T10:16:59.546Z,8.87
2022-11-14T10:22:37.034Z,8.82
2022-11-14T10:28:17.198Z,8.92
2022-11-14T10:33:51.148Z,8.96
2022-11-14T10:39:19.322Z,9.08
2022-11-14T10:44:52.396Z,8.82
2022-11-14T10:50:20.966Z,8.89
2022-11-14T10:56:03.151Z,8.75
2022-11-14T11:01:38.462Z,8.81
2022-11-14T11:07:34.879Z,8.87
2022-11-14T11:12:56.909Z,8.85
2022-11-14T11:18:29.365Z,8.83
2022-11-14T11:23:54.188Z,8.81
2022-11-14T11:29:18.633Z,8.74
2022-11-14T11:34:42.181Z,8.71
2022-11-14T11:40:07.969Z,8.66
2022-11-14T11:45:31.544Z,8.81
2022-11-14T11:50:54.833Z,8.72
2022-11-14T11:56:22.799Z,8.52
2022-11-14T12:01:44.902Z,8.40
2022-11-14T12:07:14.066Z,8.32
2022-11-14T12:12:55.667Z,8.44
2022-11-14T12:18:43.726Z,8.48
2022-11-14T12:24:28.027Z,8.30
2022-11-14T12:30:10.016Z,8.16
2022-11-14T12:35:34.693Z,8.10
2022-11-14T12:41:00.610Z,8.12
2022-11-14T12:46:22.680Z,8.23
2022-11-14T12:51:52.539Z,8.12
2022-11-14T12:57:46.373Z,7.99
2022-11-14T13:03:34.227Z,8.30
2022-11-14T13:09:25.146Z,8.10
2022-11-14T13:15:10.524Z,8.00
2022-11-14T13:20:52.077Z,7.92
2022-11-14T13:26:52.101Z,7.75
2022-11-14T13:33:03.246Z,7.83
2022-11-14T13:38:56.860Z,7.96
2022-11-14T13:44:48.792Z,7.97
2022-11-14T13:50:14.757Z,7.77
2022-11-14T13:55:47.591Z,7.84
2022-11-14T14:01:23.638Z,7.81
2022-11-14T14:06:58.967Z,7.76
2022-11-14T14:12:36.153Z,7.87
2022-11-14T14:18:07.589Z,7.82
2022-11-14T14:23:41.526Z,7.61
2022-11-14T14:29:16.678Z,7.52
2022-11-14T14:34:39.584Z,7.46
2022-11-14T14:40:04.669Z,7.50
2022-11-14T14:45:28.407Z,7.53
2022-11-14T14:50:52.512Z,7.57
2022-11-14T14:56:22.335Z,7.54
2022-11-14T15:01:44.685Z,7.49
2022-11-14T15:07:06.837Z,7.51
2022-11-14T15:12:32.443Z,7.45
2022-11-14T15:17:56.000Z,7.46
2022-11-14T15:23:22.191Z,7.43
2022-11-14T15:28:45.903Z,7.42
2022-11-14T15:34:23.826Z,7.44
2022-11-14T15:39:47.458Z,7.39
2022-11-14T15:45:24.896Z,7.44
2022-11-14T15:50:51.429Z,7.37
2022-11-14T15:56:14.405Z,7.49
2022-11-14T16:01:39.135Z,7.42
2022-11-14T16:07:01.513Z,7.32
2022-11-14T16:12:23.766Z,7.33
2022-11-14T16:17:48.590Z,7.52
2022-11-14T16:23:13.658Z,7.50
2022-11-14T16:28:35.649Z,7.49
2022-11-14T16:33:59.255Z,7.45
2022-11-14T16:39:21.233Z,7.40
2022-11-14T16:44:49.240Z,7.63
2022-11-14T16:50:14.150Z,7.69
2022-11-14T16:55:36.265Z,7.63
2022-11-14T17:00:58.635Z,7.62
2022-11-14T17:06:21.986Z,7.62
2022-11-14T17:11:45.412Z,7.60
2022-11-14T17:17:07.695Z,7.61
2022-11-14T17:22:31.129Z,7.63
2022-11-14T17:27:53.068Z,7.58
2022-11-14T17:33:14.638Z,7.50
2022-11-14T17:38:40.166Z,7.46
2022-11-14T17:44:03.778Z,7.54
2022-11-14T17:49:25.746Z,7.33
2022-11-14T17:54:49.390Z,7.25
2022-11-14T18:00:12.213Z,7.20
2022-11-14T18:05:33.832Z,7.14
2022-11-14T18:11:01.189Z,7.17
2022-11-14T18:16:26.490Z,7.19
2022-11-14T18:21:57.027Z,7.27
2022-11-14T18:27:20.432Z,7.22
2022-11-14T18:32:42.537Z,7.22
2022-11-14T18:38:04.454Z,7.26
2022-11-14T18:43:29.779Z,7.23
2022-11-14T18:48:55.539Z,7.22
2022-11-14T18:54:18.967Z,7.21
2022-11-14T18:59:42.074Z,7.34
2022-11-14T19:05:03.743Z,7.28
2022-11-14T19:10:28.100Z,7.33
2022-11-14T19:15:51.622Z,7.25
2022-11-14T19:21:13.286Z,7.15
2022-11-14T19:26:35.423Z,7.22
2022-11-14T19:31:59.027Z,7.21
2022-11-14T19:37:21.046Z,7.19
2022-11-14T19:42:42.708Z,7.22
2022-11-14T19:48:06.917Z,7.22
2022-11-14T19:53:29.600Z,7.26
2022-11-14T19:58:53.550Z,7.24
2022-11-14T20:04:17.199Z,7.27
2022-11-14T20:09:39.211Z,7.22
2022-11-14T20:15:01.024Z,7.27
2022-11-14T20:20:24.359Z,7.24
2022-11-14T20:25:52.294Z,7.30
2022-11-14T20:31:17.675Z,7.31
2022-11-14T20:37:09.331Z,7.26
2022-11-14T20:42:23.811Z,7.18
2022-11-14T20:47:45.369Z,7.17
2022-11-14T20:53:09.051Z,7.29
2022-11-14T20:58:30.779Z,7.30
2022-11-14T21:03:52.669Z,7.27
2022-11-14T21:09:16.194Z,7.23
2022-11-14T21:14:37.740Z,7.18
2022-11-14T21:19:59.646Z,7.27
2022-11-14T21:25:22.972Z,7.19
2022-11-14T21:30:44.846Z,7.22
2022-11-14T21:36:22.825Z,7.16
2022-11-14T21:41:50.267Z,7.14
2022-11-14T21:47:11.991Z,7.11
2022-11-14T21:52:34.074Z,7.17
2022-11-14T21:57:57.481Z,7.13
2022-11-14T22:03:37.258Z,7.12
2022-11-14T22:08:59.016Z,7.10
2022-11-14T22:14:22.431Z,7.11
2022-11-14T22:19:44.020Z,7.20
2022-11-14T22:25:07.628Z,7.18
2022-11-14T22:30:31.266Z,7.07
2022-11-14T22:35:52.793Z,7.17
2022-11-14T22:41:15.884Z,7.15
2022-11-14T22:46:39.239Z,7.17
2022-11-14T22:52:01.042Z,7.06
2022-11-14T22:57:22.654Z,6.97
2022-11-14T23:02:45.539Z,7.00
2022-11-14T23:08:07.215Z,6.96
2022-11-14T23:13:29.531Z,6.93
2022-11-14T23:18:55.275Z,7.03
2022-11-14T23:24:17.352Z,7.00
2022-11-14T23:29:39.441Z,7.11
2022-11-14T23:35:02.733Z,7.11
2022-11-14T23:40:24.545Z,7.12
2022-11-14T23:45:48.313Z,7.07
2022-11-14T23:51:13.738Z,6.93
2022-11-14T23:56:35.522Z,6.91
